Terminal Aerodrome Forecast
Issued by NWS Binghamton, NY

Home | Current Version | Previous Version | Text Only | Print | Product List | Glossary On
Versions: 1 2 3 4 5 6 7 8 9 10 11 12 13 14 15 16 17 18 19 20 21 22 23 24
000
FTUS41 KBGM 210900 AAA
TAFBGM
TAF AMD
KBGM 210906Z 2109/2206 17005KT P6SM SCT008 OVC015
      TEMPO 2109/2112 3SM BR OVC008
     FM211300 22007KT P6SM BKN025
     FM211800 22007KT 5SM SHRA BR BKN022 OVC035
     FM220000 22003KT 4SM BR BKN022=

USA.gov is the U.S. government's official web portal to all federal, state and local government web resources and services.